Last 24 Hour KALB Observations

Last 24 hours of surface weather observations from the Albany County Airport. Observations taken by the National Weather Service.


		
KALB 082251Z 17006KT 10SM FEW055 FEW110 27/18 A3007 RMK AO2 SLP180 T02670178=
KALB 082351Z 00000KT 10SM FEW055 FEW110 FEW250 25/18 A3008 RMK AO2 SLP183
 T02500178 10283 20250 55004=
KALB 090051Z 00000KT 10SM FEW055 FEW120 FEW250 23/18 A3009 RMK AO2 SLP187
 T02330183=
KALB 090151Z 00000KT 10SM FEW055 FEW120 FEW250 21/18 A3010 RMK AO2 SLP191
 T02110183=
KALB 090251Z 00000KT 10SM FEW120 FEW250 21/18 A3010 RMK AO2 SLP191 T02060183
 50008=
KALB 090351Z 00000KT 10SM SCT060 SCT250 20/18 A3010 RMK AO2 SLP191 T02000183=
KALB 090451Z 17005KT 10SM FEW060 SCT250 21/18 A3010 RMK AO2 SLP190 T02060183
 402830178=
KALB 090551Z 17005KT 10SM FEW250 19/18 A3010 RMK AO2 SLP190 T01940183 10250
 20194 58001=
KALB 090651Z 19004KT 10SM SCT060 SCT250 19/19 A3010 RMK AO2 SLP192 T01890189=
KALB 090751Z 00000KT 10SM FEW060 SCT250 18/18 A3010 RMK AO2 SLP192 T01830183=
KALB 090851Z 18003KT 10SM SCT095 SCT250 18/18 A3011 RMK AO2 SLP194 SCT095 V FEW
 T01780178 53004=
KALB 090951Z 00000KT 10SM FEW060 FEW095 SCT250 18/18 A3011 RMK AO2 SLP194
 T01830183=
KALB 090951Z COR 00000KT 10SM FEW015 SCT060 SCT095 BKN250 18/18 A3011 RMK AO2
 SLP194 T01830183=
KALB 090951Z 00000KT 10SM FEW060 FEW095 SCT250 18/18 A3011 RMK AO2 SLP194
 T01830183=
KALB 091051Z 18003KT 10SM VCFG FEW010 FEW060 FEW095 SCT250 18/18 A3012 RMK AO2
 SLP198 VCFG SW T01830183=
KALB 091114Z 18005KT 10SM VCFG FEW005 FEW060 FEW095 SCT250 19/19 A3012 RMK AO2
 VCFG SW T01940194=
KALB 091114Z 18005KT 10SM VCFG FEW005 FEW060 FEW095 SCT250 19/19 A3012=
KALB 091151Z 17008KT 10SM FEW005 FEW090 SCT250 20/20 A3011 RMK AO2 SLP195
 T02000200 10200 20178 50001=
KALB 091251Z 20005KT 10SM FEW007 FEW120 SCT250 22/20 A3012 RMK AO2 SLP198
 T02170200=
KALB 091351Z 20005KT 10SM FEW015 FEW070 FEW150 SCT250 24/19 A3011 RMK AO2
 SLP194 T02390194=
KALB 091451Z 00000KT 10SM SCT085 SCT250 25/19 A3010 RMK AO2 SLP191 T02500194
 58004=
KALB 091551Z VRB03KT 10SM FEW030 SCT085 SCT200 26/19 A3008 RMK AO2 SLP184
 T02610189=
KALB 091651Z 16005KT 10SM BKN040 BKN080 BKN150 27/19 A3006 RMK AO2 SLP177
 T02670194=
KALB 091751Z VRB03KT 10SM SCT042 BKN055 BKN150 27/20 A3005 RMK AO2 SLP174
 T02720200 10278 20200 56017=
KALB 091851Z 21004KT 10SM SCT042 BKN065 BKN200 28/19 A3003 RMK AO2 SLP168
 T02780194=
KALB 091951Z 22007KT 10SM SCT042 BKN065 BKN150 29/20 A3001 RMK AO2 SLP161
 T02940200=
KALB 092051Z 28007KT 10SM SCT050 BKN065 BKN150 29/19 A3001 RMK AO2 SLP160
 T02890194 56014=
KALB 092151Z 27006KT 10SM FEW065 BKN090 BKN150 27/18 A3000 RMK AO2 SLP157
 T02720178=
KALB 092251Z 25006KT 10SM FEW065 BKN085 BKN150 27/18 A2999 RMK AO2 SLP155
 BKN085 V SCT T02720178=